createdAt,value
2022-12-20T00:00:06.844Z,9.20
2022-12-20T00:02:34.384Z,9.10
2022-12-20T00:05:01.667Z,9.10
2022-12-20T00:07:28.719Z,9.10
2022-12-20T00:09:55.924Z,9.10
2022-12-20T00:12:23.111Z,9.10
2022-12-20T00:14:50.245Z,9.10
2022-12-20T00:17:17.461Z,9.10
2022-12-20T00:19:45.161Z,9.10
2022-12-20T00:22:12.281Z,9.10
2022-12-20T00:24:39.568Z,9.10
2022-12-20T00:27:06.683Z,9.10
2022-12-20T00:29:33.843Z,9.10
2022-12-20T00:32:01.040Z,9.10
2022-12-20T00:34:28.277Z,9.10
2022-12-20T00:36:56.550Z,9.10
2022-12-20T00:39:23.751Z,9.10
2022-12-20T00:41:50.926Z,9.10
2022-12-20T00:44:18.106Z,9.10
2022-12-20T00:46:45.308Z,9.10
2022-12-20T00:49:12.661Z,9.10
2022-12-20T00:51:39.835Z,9.10
2022-12-20T00:54:07.016Z,9.10
2022-12-20T00:56:34.084Z,9.10
2022-12-20T00:59:01.331Z,9.10
2022-12-20T01:01:30.730Z,9.10
2022-12-20T01:03:58.414Z,9.20
2022-12-20T01:06:26.055Z,9.10
2022-12-20T01:08:54.379Z,9.10
2022-12-20T01:11:22.857Z,9.10
2022-12-20T01:13:51.397Z,9.10
2022-12-20T01:16:29.655Z,9.10
2022-12-20T01:18:57.036Z,9.10
2022-12-20T01:21:25.330Z,9.20
2022-12-20T01:23:52.568Z,9.10
2022-12-20T01:26:20.733Z,9.10
2022-12-20T01:28:49.233Z,9.10
2022-12-20T01:31:17.524Z,9.10
2022-12-20T01:33:45.341Z,9.10
2022-12-20T01:36:14.182Z,9.10
2022-12-20T01:38:41.320Z,9.10
2022-12-20T01:41:08.616Z,9.10
2022-12-20T01:43:46.013Z,9.10
2022-12-20T01:46:13.312Z,9.10
2022-12-20T01:48:41.465Z,9.10
2022-12-20T01:51:08.867Z,9.10
2022-12-20T01:53:36.050Z,9.10
2022-12-20T01:56:04.666Z,9.10
2022-12-20T01:58:32.623Z,9.10
2022-12-20T02:00:59.825Z,9.10
2022-12-20T02:03:27.430Z,9.10
2022-12-20T02:05:54.786Z,9.10
2022-12-20T02:08:21.976Z,9.10
2022-12-20T02:10:55.142Z,9.10
2022-12-20T02:13:42.981Z,9.10
2022-12-20T02:16:14.913Z,9.10
2022-12-20T02:18:48.500Z,9.10
2022-12-20T02:21:21.657Z,9.10
2022-12-20T02:23:55.895Z,9.10
2022-12-20T02:26:28.956Z,9.10
2022-12-20T02:29:15.007Z,9.10
2022-12-20T02:31:48.805Z,9.10
2022-12-20T02:34:16.738Z,9.10
2022-12-20T02:36:44.142Z,9.10
2022-12-20T02:39:12.881Z,9.10
2022-12-20T02:41:42.608Z,9.10
2022-12-20T02:44:29.668Z,9.10
2022-12-20T02:46:58.346Z,9.10
2022-12-20T02:49:27.735Z,9.10
2022-12-20T02:51:56.049Z,9.10
2022-12-20T02:54:23.598Z,9.10
2022-12-20T02:57:00.639Z,9.10
2022-12-20T02:59:30.496Z,9.00
2022-12-20T03:01:57.978Z,9.10
2022-12-20T03:04:28.580Z,9.00
2022-12-20T03:07:03.975Z,9.10
2022-12-20T03:09:31.820Z,9.00
2022-12-20T03:11:59.052Z,9.10
2022-12-20T03:14:26.675Z,9.00
2022-12-20T03:16:56.640Z,9.10
2022-12-20T03:19:23.893Z,9.10
2022-12-20T03:21:51.511Z,9.00
2022-12-20T03:24:18.767Z,9.10
2022-12-20T03:26:46.696Z,9.10
2022-12-20T03:29:14.948Z,9.10
2022-12-20T03:31:42.199Z,9.10
2022-12-20T03:34:09.422Z,9.10
2022-12-20T03:36:36.861Z,9.10
2022-12-20T03:39:05.766Z,9.00
2022-12-20T03:41:37.304Z,9.10
2022-12-20T03:44:05.378Z,9.00
2022-12-20T03:46:32.794Z,9.10
2022-12-20T03:49:00.105Z,9.10
2022-12-20T03:51:28.785Z,9.10
2022-12-20T03:53:56.117Z,9.10
2022-12-20T03:56:31.712Z,9.00
2022-12-20T03:58:58.995Z,9.00
2022-12-20T04:01:27.502Z,9.10
2022-12-20T04:03:55.986Z,9.00
2022-12-20T04:06:23.511Z,9.00
2022-12-20T04:08:51.614Z,9.00
2022-12-20T04:11:26.153Z,9.10
2022-12-20T04:13:59.814Z,9.00
2022-12-20T04:16:28.021Z,9.10
2022-12-20T04:18:55.933Z,9.00
2022-12-20T04:21:24.910Z,9.00
2022-12-20T04:23:53.997Z,9.00
2022-12-20T04:26:21.844Z,9.00
2022-12-20T04:28:49.771Z,9.00
2022-12-20T04:31:23.293Z,9.00
2022-12-20T04:33:53.073Z,9.00
2022-12-20T04:36:21.232Z,9.00
2022-12-20T04:38:50.786Z,9.00
2022-12-20T04:41:24.138Z,9.00
2022-12-20T04:43:59.263Z,9.00
2022-12-20T04:46:34.681Z,9.00
2022-12-20T04:49:02.739Z,9.00
2022-12-20T04:51:32.351Z,9.00
2022-12-20T04:53:59.669Z,9.00
2022-12-20T04:56:35.562Z,9.00
2022-12-20T04:59:09.277Z,9.00
2022-12-20T05:01:36.975Z,9.00
2022-12-20T05:04:04.505Z,9.00
2022-12-20T05:06:35.770Z,9.00
2022-12-20T05:09:03.525Z,9.00
2022-12-20T05:11:31.618Z,9.00
2022-12-20T05:13:59.024Z,9.00
2022-12-20T05:16:26.344Z,9.00
2022-12-20T05:18:53.599Z,9.00
2022-12-20T05:21:40.357Z,9.00
2022-12-20T05:24:28.073Z,9.00
2022-12-20T05:27:11.101Z,9.00
2022-12-20T05:29:38.778Z,9.00
2022-12-20T05:32:06.000Z,9.00
2022-12-20T05:34:37.035Z,9.00
2022-12-20T05:37:04.503Z,9.00
2022-12-20T05:39:33.956Z,9.00
2022-12-20T05:42:05.559Z,9.00
2022-12-20T05:44:32.959Z,9.00
2022-12-20T05:47:00.268Z,9.00
2022-12-20T05:49:30.625Z,9.00
2022-12-20T05:52:01.755Z,9.00
2022-12-20T05:54:29.370Z,9.00
2022-12-20T05:57:22.518Z,9.00
2022-12-20T05:59:49.729Z,9.10
2022-12-20T06:02:19.714Z,9.00
2022-12-20T06:04:50.452Z,9.00
2022-12-20T06:07:20.779Z,9.00
2022-12-20T06:09:51.792Z,9.00
2022-12-20T06:12:21.942Z,9.00
2022-12-20T06:14:49.474Z,9.00
2022-12-20T06:17:17.389Z,9.00
2022-12-20T06:19:44.824Z,9.00
2022-12-20T06:22:15.671Z,9.00
2022-12-20T06:24:48.842Z,9.00
2022-12-20T06:27:19.182Z,9.10
2022-12-20T06:29:54.499Z,9.10
2022-12-20T06:32:25.859Z,9.10
2022-12-20T06:34:54.061Z,9.10
2022-12-20T06:37:21.888Z,9.00
2022-12-20T06:39:49.778Z,9.10
2022-12-20T06:42:17.051Z,9.10
2022-12-20T06:44:45.377Z,9.10
2022-12-20T06:47:12.540Z,9.10
2022-12-20T06:49:39.832Z,9.10
2022-12-20T06:52:13.576Z,9.00
2022-12-20T06:54:46.852Z,9.00
2022-12-20T06:57:14.377Z,9.10
2022-12-20T06:59:43.644Z,9.10
2022-12-20T07:02:11.603Z,9.10
2022-12-20T07:04:38.944Z,9.10
2022-12-20T07:07:06.175Z,9.10
2022-12-20T07:09:33.622Z,9.10
2022-12-20T07:12:00.870Z,9.10
2022-12-20T07:14:28.204Z,9.10
2022-12-20T07:16:55.460Z,9.10
2022-12-20T07:19:22.737Z,9.10
2022-12-20T07:21:49.941Z,9.10
2022-12-20T07:24:17.226Z,9.10
2022-12-20T07:26:45.649Z,9.10
2022-12-20T07:29:15.751Z,9.10
2022-12-20T07:31:43.856Z,9.10
2022-12-20T07:34:11.360Z,9.10
2022-12-20T07:36:38.572Z,9.10
2022-12-20T07:39:05.866Z,9.10
2022-12-20T07:41:33.131Z,9.10
2022-12-20T07:44:00.726Z,9.10
2022-12-20T07:46:28.358Z,9.10
2022-12-20T07:48:55.561Z,9.10
2022-12-20T07:51:28.142Z,9.10
2022-12-20T07:54:01.683Z,9.10
2022-12-20T07:56:29.332Z,9.10
2022-12-20T07:58:58.534Z,9.20
2022-12-20T08:01:27.386Z,9.30
2022-12-20T08:04:00.252Z,9.30
2022-12-20T08:06:27.480Z,9.20
2022-12-20T08:08:55.997Z,9.20
2022-12-20T08:11:23.910Z,9.20
2022-12-20T08:13:57.500Z,9.20
2022-12-20T08:16:25.560Z,9.20
2022-12-20T08:18:52.890Z,9.30
2022-12-20T08:21:20.093Z,9.60
2022-12-20T08:23:47.306Z,9.50
2022-12-20T08:26:14.441Z,9.40
2022-12-20T08:28:41.710Z,9.40
2022-12-20T08:31:09.674Z,9.40
2022-12-20T08:33:40.288Z,9.40
2022-12-20T08:36:12.244Z,9.40
2022-12-20T08:38:40.005Z,9.40
2022-12-20T08:41:08.448Z,9.40
2022-12-20T08:43:35.711Z,9.40
2022-12-20T08:46:03.013Z,9.40
2022-12-20T08:48:30.246Z,9.40
2022-12-20T09:05:48.435Z,7.50
2022-12-20T09:08:15.807Z,8.00
2022-12-20T09:10:43.363Z,8.50
2022-12-20T09:13:11.462Z,8.80
2022-12-20T09:15:38.715Z,8.90
2022-12-20T09:18:06.070Z,9.10
2022-12-20T09:20:33.239Z,9.20
2022-12-20T09:23:00.514Z,9.20
2022-12-20T09:25:28.395Z,9.20
2022-12-20T09:27:56.537Z,9.30
2022-12-20T09:30:23.800Z,9.30
2022-12-20T09:32:51.156Z,9.30
2022-12-20T09:35:23.074Z,9.30
2022-12-20T09:37:50.692Z,9.30
2022-12-20T09:40:19.191Z,9.30
2022-12-20T09:42:47.235Z,9.40
2022-12-20T09:45:20.576Z,9.40
2022-12-20T09:47:47.826Z,9.40
2022-12-20T09:50:17.231Z,9.40
2022-12-20T09:52:44.329Z,9.50
2022-12-20T09:55:22.700Z,9.50
2022-12-20T09:58:08.796Z,9.60
2022-12-20T10:00:40.333Z,9.60
2022-12-20T10:03:13.340Z,9.70
2022-12-20T10:05:49.669Z,9.70
2022-12-20T10:08:23.145Z,9.70
2022-12-20T10:10:50.340Z,9.70
2022-12-20T10:13:17.425Z,9.70
2022-12-20T10:15:44.700Z,9.70
2022-12-20T10:18:44.111Z,9.80
2022-12-20T10:21:17.895Z,9.80
2022-12-20T10:23:50.841Z,9.80
2022-12-20T10:26:17.991Z,9.80
2022-12-20T10:28:50.674Z,9.80
2022-12-20T10:31:21.027Z,9.80
2022-12-20T10:33:48.282Z,9.80
2022-12-20T10:36:31.987Z,9.80
2022-12-20T10:39:00.240Z,9.80
2022-12-20T10:41:30.134Z,9.80
2022-12-20T10:44:02.599Z,9.80
2022-12-20T10:46:40.735Z,9.80
2022-12-20T10:49:28.436Z,9.80
2022-12-20T10:51:56.817Z,9.80
2022-12-20T10:54:28.616Z,9.90
2022-12-20T10:56:57.353Z,9.90
2022-12-20T10:59:30.312Z,9.90
2022-12-20T11:01:57.697Z,9.90
2022-12-20T11:04:35.732Z,9.90
2022-12-20T11:07:04.518Z,9.90
2022-12-20T11:09:31.697Z,10.00
2022-12-20T11:12:03.583Z,10.00
2022-12-20T11:14:38.709Z,10.00
2022-12-20T11:17:15.475Z,10.00
2022-12-20T11:19:50.971Z,10.00
2022-12-20T11:22:24.024Z,10.60
2022-12-20T11:24:54.036Z,10.80
2022-12-20T11:27:23.917Z,10.60
2022-12-20T11:29:54.170Z,10.50
2022-12-20T11:32:30.543Z,10.40
2022-12-20T11:35:03.172Z,10.70
2022-12-20T11:37:53.646Z,10.60
2022-12-20T11:40:36.810Z,10.50
2022-12-20T11:43:16.228Z,10.40
2022-12-20T11:45:46.265Z,10.40
2022-12-20T11:48:13.632Z,10.30
2022-12-20T11:50:53.288Z,10.30
2022-12-20T11:53:23.750Z,10.30
2022-12-20T11:55:53.655Z,10.20
2022-12-20T11:58:27.323Z,10.20
2022-12-20T12:01:00.172Z,10.20
2022-12-20T12:03:33.457Z,10.20
2022-12-20T12:06:03.584Z,10.20
2022-12-20T12:08:35.125Z,10.20
2022-12-20T12:12:05.988Z,10.30
2022-12-20T12:14:31.234Z,10.30
2022-12-20T12:17:02.210Z,10.30
2022-12-20T12:19:30.790Z,10.30
2022-12-20T12:22:02.236Z,10.30
2022-12-20T12:24:31.850Z,10.30
2022-12-20T12:26:59.686Z,10.30
2022-12-20T12:29:28.438Z,10.30
2022-12-20T12:32:02.575Z,10.30
2022-12-20T12:34:37.886Z,10.30
2022-12-20T12:37:23.623Z,10.30
2022-12-20T12:40:10.498Z,10.30
2022-12-20T12:42:57.267Z,10.30
2022-12-20T12:45:24.445Z,10.30
2022-12-20T12:47:57.901Z,10.30
2022-12-20T12:50:30.723Z,10.30
2022-12-20T12:53:18.528Z,10.30
2022-12-20T12:55:45.712Z,10.30
2022-12-20T12:58:30.712Z,10.20
2022-12-20T13:01:00.008Z,10.20
2022-12-20T13:04:05.607Z,10.20
2022-12-20T13:06:35.498Z,10.20
2022-12-20T13:09:03.343Z,10.20
2022-12-20T13:11:32.812Z,10.20
2022-12-20T13:14:18.890Z,10.20
2022-12-20T13:17:11.722Z,10.20
2022-12-20T13:19:40.568Z,10.10
2022-12-20T13:22:14.877Z,10.20
2022-12-20T13:24:58.640Z,10.10
2022-12-20T13:27:25.981Z,10.10
2022-12-20T13:30:02.858Z,10.10
2022-12-20T13:32:48.541Z,10.10
2022-12-20T13:35:25.227Z,10.10
2022-12-20T13:37:55.369Z,10.10
2022-12-20T13:40:33.534Z,10.10
2022-12-20T13:43:05.659Z,10.10
2022-12-20T13:45:33.989Z,10.10
2022-12-20T13:48:11.356Z,10.10
2022-12-20T13:50:47.458Z,10.10
2022-12-20T13:53:22.774Z,10.10
2022-12-20T13:55:50.383Z,10.10
2022-12-20T13:58:23.122Z,10.10
2022-12-20T14:00:51.063Z,10.10
2022-12-20T14:03:23.356Z,10.10
2022-12-20T14:05:53.258Z,10.00
2022-12-20T14:08:22.803Z,10.10
2022-12-20T14:10:52.470Z,10.00
2022-12-20T14:13:24.751Z,10.00
2022-12-20T14:15:53.045Z,10.00
2022-12-20T14:18:21.903Z,10.00
2022-12-20T14:20:51.454Z,10.00
2022-12-20T14:23:22.001Z,10.00
2022-12-20T14:25:51.702Z,10.00
2022-12-20T14:28:31.046Z,10.00
2022-12-20T14:30:59.602Z,10.00
2022-12-20T14:33:31.823Z,10.00
2022-12-20T14:36:08.028Z,10.00
2022-12-20T14:38:35.288Z,10.00
2022-12-20T14:41:02.485Z,10.00
2022-12-20T14:43:33.517Z,10.00
2022-12-20T14:46:26.723Z,10.00
2022-12-20T14:49:06.508Z,10.00
2022-12-20T14:51:33.695Z,10.00
2022-12-20T14:54:00.979Z,10.00
2022-12-20T14:56:31.894Z,10.00
2022-12-20T14:59:16.173Z,10.00
2022-12-20T15:01:44.663Z,10.00
2022-12-20T15:04:32.354Z,9.90
2022-12-20T15:07:00.183Z,10.00
2022-12-20T15:09:27.637Z,9.90
2022-12-20T15:11:56.066Z,9.90
2022-12-20T15:14:37.279Z,9.90
2022-12-20T15:17:09.235Z,9.90
2022-12-20T15:19:42.007Z,9.90
2022-12-20T15:22:14.470Z,9.90
2022-12-20T15:24:41.734Z,9.90
2022-12-20T15:27:15.208Z,9.90
2022-12-20T15:29:43.231Z,9.90
2022-12-20T15:32:23.819Z,9.90
2022-12-20T15:34:51.038Z,10.00
2022-12-20T15:37:19.197Z,9.90
2022-12-20T15:39:46.690Z,10.00
2022-12-20T15:42:16.487Z,9.90
2022-12-20T15:44:44.011Z,9.90
2022-12-20T15:47:14.398Z,9.90
2022-12-20T15:49:47.868Z,9.90
2022-12-20T15:52:21.281Z,9.90
2022-12-20T15:54:48.924Z,9.90
2022-12-20T15:57:16.364Z,9.90
2022-12-20T16:00:01.139Z,9.90
2022-12-20T16:02:38.810Z,9.90
2022-12-20T16:05:06.509Z,9.90
2022-12-20T16:07:33.608Z,9.90
2022-12-20T16:10:00.852Z,9.90
2022-12-20T16:12:34.181Z,9.90
2022-12-20T16:15:01.699Z,9.90
2022-12-20T16:17:28.882Z,9.90
2022-12-20T16:19:56.081Z,9.90
2022-12-20T16:22:24.034Z,9.90
2022-12-20T16:24:51.936Z,10.00
2022-12-20T16:27:20.365Z,10.00
2022-12-20T16:29:47.739Z,10.00
2022-12-20T16:32:19.055Z,9.90
2022-12-20T16:34:46.342Z,9.90
2022-12-20T16:37:13.830Z,9.90
2022-12-20T16:39:41.723Z,9.90
2022-12-20T16:42:15.692Z,9.90
2022-12-20T16:44:45.094Z,9.90
2022-12-20T16:47:13.230Z,9.90
2022-12-20T16:49:47.160Z,9.90
2022-12-20T16:52:37.305Z,9.90
2022-12-20T16:55:05.427Z,10.00
2022-12-20T16:57:32.612Z,9.90
2022-12-20T16:59:59.744Z,10.00
2022-12-20T17:02:31.798Z,9.90
2022-12-20T17:04:59.360Z,10.00
2022-12-20T17:07:26.579Z,9.90
2022-12-20T17:10:11.899Z,10.00
2022-12-20T17:12:39.417Z,10.00
2022-12-20T17:15:07.008Z,10.00
2022-12-20T17:17:34.127Z,10.10
2022-12-20T17:20:01.515Z,10.00
2022-12-20T17:25:23.627Z,10.00
2022-12-20T17:27:51.118Z,10.00
2022-12-20T17:30:18.687Z,10.00
2022-12-20T17:32:46.122Z,10.00
2022-12-20T17:35:33.086Z,10.00
2022-12-20T17:38:00.591Z,10.00
2022-12-20T17:40:28.561Z,10.00
2022-12-20T17:42:56.022Z,10.00
2022-12-20T17:45:23.144Z,9.90
2022-12-20T17:47:50.338Z,9.90
2022-12-20T17:50:18.270Z,9.90
2022-12-20T17:52:46.410Z,10.00
2022-12-20T17:55:17.975Z,9.90
2022-12-20T17:57:45.196Z,10.00
2022-12-20T18:00:16.353Z,10.00
2022-12-20T18:02:43.572Z,10.00
2022-12-20T18:05:12.482Z,10.00
2022-12-20T18:07:39.626Z,10.00
2022-12-20T18:10:07.112Z,10.00
2022-12-20T18:12:37.628Z,10.00
2022-12-20T18:15:07.376Z,10.00
2022-12-20T18:17:34.658Z,9.90
2022-12-20T18:20:01.923Z,10.00
2022-12-20T18:22:29.183Z,10.00
2022-12-20T18:24:56.326Z,10.00
2022-12-20T18:27:28.709Z,9.90
2022-12-20T18:29:57.696Z,10.00
2022-12-20T18:32:25.102Z,9.90
2022-12-20T18:34:52.525Z,10.00
2022-12-20T18:37:19.704Z,9.90
2022-12-20T18:39:46.855Z,9.90
2022-12-20T18:42:14.014Z,9.90
2022-12-20T18:44:41.154Z,9.90
2022-12-20T18:47:08.251Z,9.90
2022-12-20T18:49:36.730Z,9.90
2022-12-20T18:52:04.063Z,9.90
2022-12-20T18:54:31.210Z,9.90
2022-12-20T18:56:58.566Z,9.90
2022-12-20T18:59:25.785Z,9.90
2022-12-20T19:01:53.183Z,9.90
2022-12-20T19:04:24.576Z,9.90
2022-12-20T19:06:52.404Z,9.90
2022-12-20T19:09:19.628Z,9.90
2022-12-20T19:11:49.230Z,9.90
2022-12-20T19:14:20.405Z,9.90
2022-12-20T19:16:49.473Z,9.90
2022-12-20T19:19:16.630Z,9.90
2022-12-20T19:21:45.013Z,9.90
2022-12-20T19:24:12.399Z,9.80
2022-12-20T19:26:39.790Z,9.90
2022-12-20T19:29:07.462Z,9.90
2022-12-20T19:31:36.552Z,9.90
2022-12-20T19:34:05.606Z,9.90
2022-12-20T19:36:35.829Z,9.90
2022-12-20T19:39:03.629Z,9.90
2022-12-20T19:41:31.596Z,9.90
2022-12-20T19:43:59.038Z,10.00
2022-12-20T19:46:29.733Z,10.00
2022-12-20T19:48:58.156Z,10.10
2022-12-20T19:51:26.121Z,10.10
2022-12-20T19:53:54.034Z,10.10
2022-12-20T19:56:22.930Z,10.00
2022-12-20T19:58:50.281Z,10.00
2022-12-20T20:01:18.141Z,10.00
2022-12-20T20:03:45.816Z,10.00
2022-12-20T20:06:13.176Z,10.00
2022-12-20T20:08:40.803Z,9.90
2022-12-20T20:11:10.159Z,9.90
2022-12-20T20:13:38.364Z,9.90
2022-12-20T20:16:06.396Z,9.90
2022-12-20T20:18:37.685Z,10.00
2022-12-20T20:21:06.177Z,10.00
2022-12-20T20:23:33.619Z,10.00
2022-12-20T20:26:00.851Z,10.00
2022-12-20T20:28:32.262Z,10.00
2022-12-20T20:31:00.590Z,9.90
2022-12-20T20:33:28.063Z,9.90
2022-12-20T20:35:59.895Z,9.90
2022-12-20T20:38:28.283Z,9.90
2022-12-20T20:40:55.540Z,9.90
2022-12-20T20:43:23.574Z,10.00
2022-12-20T20:45:51.121Z,10.00
2022-12-20T20:48:18.406Z,10.00
2022-12-20T20:50:45.613Z,9.90
2022-12-20T20:53:14.035Z,9.90
2022-12-20T20:55:41.495Z,10.00
2022-12-20T20:58:08.738Z,10.00
2022-12-20T21:00:35.973Z,9.90
2022-12-20T21:03:03.386Z,10.00
2022-12-20T21:08:19.343Z,9.90
2022-12-20T21:10:46.610Z,9.90
2022-12-20T21:13:14.208Z,9.90
2022-12-20T21:15:43.651Z,9.90
2022-12-20T21:18:11.268Z,10.00
2022-12-20T21:20:38.830Z,10.10
2022-12-20T21:23:06.847Z,10.00
2022-12-20T21:25:34.076Z,10.00
2022-12-20T21:28:01.260Z,10.00
2022-12-20T21:30:28.486Z,10.00
2022-12-20T21:32:55.691Z,10.00
2022-12-20T21:35:22.832Z,10.00
2022-12-20T21:37:49.997Z,9.90
2022-12-20T21:40:17.216Z,9.90
2022-12-20T21:42:45.510Z,9.90
2022-12-20T21:45:12.760Z,9.90
2022-12-20T21:47:39.925Z,9.90
2022-12-20T21:50:07.411Z,9.90
2022-12-20T21:52:35.272Z,9.90
2022-12-20T21:55:03.088Z,10.10
2022-12-20T21:57:30.286Z,10.10
2022-12-20T21:59:57.479Z,10.00
2022-12-20T22:02:24.777Z,10.00
2022-12-20T22:04:52.018Z,10.00
2022-12-20T22:07:19.238Z,10.00
2022-12-20T22:09:46.338Z,10.00
2022-12-20T22:12:13.478Z,9.90
2022-12-20T22:14:41.306Z,10.00
2022-12-20T22:17:08.459Z,9.90
2022-12-20T22:19:37.083Z,10.00
2022-12-20T22:22:04.836Z,10.00
2022-12-20T22:24:32.222Z,10.00
2022-12-20T22:26:59.373Z,10.00
2022-12-20T22:29:26.520Z,10.00
2022-12-20T22:31:53.724Z,10.00
2022-12-20T22:34:20.996Z,10.00
2022-12-20T22:36:48.172Z,10.00
2022-12-20T22:39:15.460Z,10.00
2022-12-20T22:41:42.785Z,10.00
2022-12-20T22:44:09.963Z,9.90
2022-12-20T22:46:37.102Z,10.00
2022-12-20T22:49:04.219Z,9.90
2022-12-20T22:51:33.332Z,9.90
2022-12-20T22:54:00.796Z,10.00
2022-12-20T22:56:28.164Z,10.00
2022-12-20T22:58:55.969Z,10.00
2022-12-20T23:01:23.447Z,10.00
2022-12-20T23:03:50.992Z,10.00
2022-12-20T23:06:19.268Z,10.00
2022-12-20T23:08:46.811Z,10.00
2022-12-20T23:11:42.776Z,10.00
2022-12-20T23:14:30.425Z,10.00
2022-12-20T23:16:57.961Z,10.00
2022-12-20T23:19:25.098Z,10.00
2022-12-20T23:22:10.815Z,10.00
2022-12-20T23:24:37.916Z,10.00
2022-12-20T23:27:04.989Z,10.00
2022-12-20T23:29:32.130Z,10.00
2022-12-20T23:31:59.348Z,10.00
2022-12-20T23:34:26.663Z,10.00
2022-12-20T23:36:53.880Z,10.00
2022-12-20T23:39:20.976Z,10.00
2022-12-20T23:41:48.007Z,10.00
2022-12-20T23:44:15.221Z,10.00
2022-12-20T23:46:42.363Z,10.00
2022-12-20T23:49:09.471Z,10.00
2022-12-20T23:51:36.556Z,10.00
2022-12-20T23:54:03.723Z,10.00
2022-12-20T23:56:30.930Z,9.90
2022-12-20T23:58:58.247Z,10.00
